»·PEaware :: N8979T KLAX-KSFO

N8979T :: KLAX-KSFO

FLIGHT INFORMATION

Flight Status: Arrived
Operator: Privately registered:
United States
More flights under this callsign
Pilot: Brett J. (1348)
Aircraft: CESSNA 500 CITATION 1
(C500)
More flights by this aircraft type
Origin: KLAX Los Angeles Intl
United States
Destination: KSFO San Francisco Intl
United States
More flights between these airports :: More routes between these airports
Route: VTU5 RZS J501 BSR BSR2
File this flight plan on PilotEdge
Remarks:
Altitude:
(Current/Filed)
20,000ft
Speed:
(Current/Filed)
300kts
Departed: 07-Dec-13 06:56 PM
Arrived: 07-Dec-13 08:09 PM
Distance/Time
Traveled:
294nm/1:13
Distance/Time
To Go:
Arrived

Flight Plot

Page will automatically refresh every two minutes.


Map Options




Map Legend


Flown Route
Filed Route
Departure Airport
Arrival Airport
Navaid (VOR, NDB)
Fix

Horizontal Profiles

Position Reports

Time Latitude Longitude Heading Altitude Ground
Speed
07-Dec-13 18:44 33.943543 -118.392514 182 128ft 0kts
07-Dec-13 18:45 33.943542 -118.392514 182 128ft 0kts
07-Dec-13 18:46 33.943541 -118.392514 182 128ft 0kts
07-Dec-13 18:47 33.943540 -118.392514 182 128ft 0kts
07-Dec-13 18:48 33.943540 -118.392515 182 128ft 0kts
07-Dec-13 18:49 33.943539 -118.392515 182 128ft 0kts
07-Dec-13 18:50 33.943539 -118.392515 182 128ft 0kts
07-Dec-13 18:51 33.943476 -118.392512 172 128ft 3kts
07-Dec-13 18:52 33.940313 -118.390245 139 128ft 15kts
07-Dec-13 18:53 33.940448 -118.384384 82 128ft 25kts
07-Dec-13 18:54 33.940641 -118.380538 124 128ft 0kts
07-Dec-13 18:55 33.939707 -118.382130 262 128ft 50kts
07-Dec-13 18:56 33.934802 -118.429566 262 1293ft 205kts
07-Dec-13 18:57 33.925981 -118.507544 262 2834ft 247kts
07-Dec-13 18:58 33.916477 -118.590642 262 4731ft 253kts
07-Dec-13 18:59 33.905318 -118.677329 262 6742ft 268kts
07-Dec-13 19:00 33.892967 -118.768034 262 8743ft 280kts
07-Dec-13 19:01 33.881255 -118.862041 263 10758ft 285kts
07-Dec-13 19:02 33.866685 -118.955994 262 12706ft 288kts
07-Dec-13 19:03 33.851291 -119.054817 262 12863ft 303kts
07-Dec-13 19:04 33.885379 -119.127692 337 14190ft 260kts
07-Dec-13 19:05 33.950451 -119.170263 330 15696ft 276kts
07-Dec-13 19:06 34.012618 -119.228469 324 17103ft 287kts
07-Dec-13 19:07 34.073404 -119.292493 324 18505ft 291kts
07-Dec-13 19:08 34.133614 -119.357115 316 19713ft 273kts
07-Dec-13 19:09 34.191178 -119.420222 318 19864ft 279kts
07-Dec-13 19:10 34.248636 -119.483454 318 19861ft 279kts
07-Dec-13 19:11 34.307632 -119.547756 311 19865ft 303kts
07-Dec-13 19:12 34.371526 -119.618365 311 19864ft 312kts
07-Dec-13 19:13 34.436725 -119.690279 311 19864ft 319kts
07-Dec-13 19:14 34.501280 -119.761516 311 19864ft 310kts
07-Dec-13 19:15 34.565622 -119.831764 311 19864ft 310kts
07-Dec-13 19:16 34.630149 -119.901940 311 19864ft 310kts
07-Dec-13 19:17 34.694511 -119.972204 311 19864ft 310kts
07-Dec-13 19:18 34.758943 -120.042752 311 19864ft 311kts
07-Dec-13 19:19 34.823029 -120.113086 311 19865ft 310kts
07-Dec-13 19:20 34.887444 -120.183955 311 19864ft 311kts
07-Dec-13 19:21 34.951787 -120.254891 311 19865ft 310kts
07-Dec-13 19:22 35.015868 -120.325686 311 19872ft 309kts
07-Dec-13 19:23 35.079890 -120.396670 311 19871ft 311kts
07-Dec-13 19:24 35.133449 -120.456140 311 19870ft 311kts
07-Dec-13 19:25 35.206720 -120.537646 311 19887ft 303kts
07-Dec-13 19:26 35.269389 -120.607716 311 19889ft 307kts
07-Dec-13 19:27 35.321793 -120.666287 311 19888ft 306kts
07-Dec-13 19:28 35.381596 -120.733212 314 19869ft 281kts
07-Dec-13 19:29 35.439546 -120.798165 313 19869ft 282kts
07-Dec-13 19:30 35.497632 -120.863424 313 19870ft 283kts
07-Dec-13 19:31 35.555424 -120.928489 314 19865ft 280kts
07-Dec-13 19:32 35.613060 -120.993371 314 19864ft 280kts
07-Dec-13 19:33 35.670598 -121.058352 314 19864ft 280kts
07-Dec-13 19:34 35.728100 -121.123497 314 19864ft 280kts
07-Dec-13 19:35 35.785570 -121.188746 314 19864ft 280kts
07-Dec-13 19:36 35.842835 -121.253898 314 19864ft 280kts
07-Dec-13 19:37 35.900212 -121.319321 313 19864ft 280kts
07-Dec-13 19:38 35.957566 -121.384849 313 19864ft 280kts
07-Dec-13 19:39 36.014880 -121.450482 313 19864ft 280kts
07-Dec-13 19:40 36.072177 -121.516218 313 19864ft 280kts
07-Dec-13 19:41 36.129420 -121.582067 313 19864ft 280kts
07-Dec-13 19:42 36.187408 -121.646984 318 19864ft 281kts
07-Dec-13 19:43 36.251604 -121.703497 321 19864ft 283kts
07-Dec-13 19:44 36.316756 -121.759318 320 18991ft 286kts
07-Dec-13 19:45 36.382294 -121.816133 319 17901ft 287kts
07-Dec-13 19:46 36.447944 -121.871812 327 16400ft 286kts
07-Dec-13 19:47 36.524710 -121.901239 341 14902ft 288kts
07-Dec-13 19:48 36.602612 -121.923109 342 13399ft 284kts
07-Dec-13 19:49 36.679444 -121.945274 342 11895ft 281kts
07-Dec-13 19:50 36.754192 -121.966904 343 10389ft 253kts
07-Dec-13 19:51 36.814556 -121.982487 343 9691ft 184kts
07-Dec-13 19:52 36.869351 -121.997234 343 9702ft 229kts
07-Dec-13 19:53 36.932998 -122.013763 344 9701ft 244kts
07-Dec-13 19:54 37.002479 -122.031944 344 9698ft 260kts
07-Dec-13 19:55 37.072686 -122.050276 344 9697ft 254kts
07-Dec-13 19:56 37.138700 -122.067587 344 9696ft 230kts
07-Dec-13 19:57 37.198885 -122.083469 344 8926ft 210kts
07-Dec-13 19:58 37.255610 -122.098514 345 7422ft 207kts
07-Dec-13 19:59 37.311561 -122.113143 345 5923ft 203kts
07-Dec-13 20:00 37.364145 -122.126778 345 5705ft 207kts
07-Dec-13 20:01 37.423274 -122.142625 345 5517ft 217kts
07-Dec-13 20:02 37.481802 -122.158616 345 4615ft 200kts
07-Dec-13 20:03 37.532387 -122.172476 345 3704ft 173kts
07-Dec-13 20:04 37.560821 -122.213891 299 2310ft 151kts
07-Dec-13 20:05 37.581571 -122.258732 296 2025ft 166kts
07-Dec-13 20:06 37.594839 -122.308428 287 1025ft 116kts
07-Dec-13 20:07 37.609001 -122.346763 298 238ft 121kts
07-Dec-13 20:08 37.618803 -122.369708 301 15ft 27kts
07-Dec-13 20:09 37.624899 -122.381160 346 15ft 10kts
07-Dec-13 20:10 37.627287 -122.381344 336 15ft 0kts
07-Dec-13 20:11 37.627287 -122.381344 336 15ft 0kts

Navigation Log

Ident Type
Flight plan parsing failed, navigation log unavailable